M/V Gs980 — WTK9405 — position and weather

sailwx.info

Track history (hours):
 
Tides and Currents Weather Stations Pressure Air Temp Water Temp Dewpoint Dewpoint Depression Visibility Wind Speed Wind Dir Waves Ship Positions

M/V Gs980

Owner: ERGON MARINE AND INDUSTRIAL SUPPLY, VICKSBURG, MS. More information available from US FCC via Universal Licensing System and Coast Guard Vessel Documentation Center.

Last reported at 2017-Jan-17 01:33 UTC. Time now 2017-Jan-17 08:57 UTC.
Position N 32°23' W 090°53'.

Length 16 m.

Type: Towing. MMSI: 367099640.

Date/timePositionNaut miles runAvg speedWind from/ knotsBaromVisibWave heightAir tempDewpointWater temp
2017-Jan-17 01:33N 32°23' W 090°53'2 2.4
2017-Jan-17 00:33N 32°21' W 090°53'1 0.8
2017-Jan-16 23:34N 32°20' W 090°54'1 1.1
2017-Jan-16 22:34N 32°21' W 090°53'1 0.7
2017-Jan-16 21:34N 32°21' W 090°54'0 0.0
2017-Jan-16 20:34N 32°21' W 090°54'0 0.1
2017-Jan-16 19:34N 32°21' W 090°54'2 2.4
2017-Jan-16 18:33N 32°23' W 090°53'0 0.2
2017-Jan-16 17:33N 32°23' W 090°53'0 0.4
2017-Jan-16 16:33N 32°23' W 090°53'4 3.6
2017-Jan-16 15:33N 32°20' W 090°54'2 2.0
2017-Jan-16 14:34N 32°18' W 090°55'0 0.2
2017-Jan-16 13:33N 32°18' W 090°55'0 0.1
2017-Jan-16 12:34N 32°18' W 090°55'1 1.1
2017-Jan-16 11:33N 32°19' W 090°54'3 2.8
2017-Jan-16 10:33N 32°21' W 090°53'0 0.1
2017-Jan-16 09:33N 32°22' W 090°53'2 1.6
2017-Jan-16 08:33N 32°23' W 090°53'0 0.0
2017-Jan-16 07:33N 32°23' W 090°53'0 0.0
2017-Jan-16 06:33N 32°23' W 090°53'0 0.0
2017-Jan-16 05:34N 32°23' W 090°53'0 0.0
2017-Jan-16 04:33N 32°23' W 090°53'0 0.0
2017-Jan-16 03:33N 32°23' W 090°53'0 0.0
2017-Jan-16 02:34N 32°23' W 090°53'3 2.9
2017-Jan-16 01:33N 32°21' W 090°55'0 0.3
2017-Jan-16 00:33N 32°21' W 090°56'2 0.8
2017-Jan-15 22:34N 32°20' W 090°54'3 3.0
2017-Jan-15 21:34N 32°23' W 090°53'0 0.0
2017-Jan-15 20:34N 32°23' W 090°53'1 1.3
2017-Jan-15 19:34N 32°22' W 090°53'5 4.6
2017-Jan-15 18:34N 32°18' W 090°55'3 2.9
2017-Jan-15 17:34N 32°21' W 090°53'0 0.0
2017-Jan-15 16:34N 32°21' W 090°53'1 1.1
2017-Jan-15 15:33N 32°20' W 090°54'0 0.0
2017-Jan-15 14:34N 32°20' W 090°54'4 3.7
2017-Jan-15 13:34N 32°23' W 090°53'4 3.6
2017-Jan-15 12:33N 32°20' W 090°54'0 0.1
2017-Jan-15 10:28N 32°20' W 090°54'2 2.6
2017-Jan-15 09:33N 32°18' W 090°56'3 3.4
2017-Jan-15 08:33N 32°21' W 090°53'3 2.6
2017-Jan-15 07:33N 32°23' W 090°53'3 3.3
2017-Jan-15 06:33N 32°20' W 090°54'0 0.0
2017-Jan-15 05:33N 32°20' W 090°54'0 0.0
2017-Jan-15 04:33N 32°20' W 090°54'0 0.5
2017-Jan-15 03:33N 32°20' W 090°54'2 2.1
2017-Jan-15 02:33N 32°22' W 090°53'5 4.7
2017-Jan-15 01:33N 32°18' W 090°55'0 0.1
2017-Jan-15 00:33N 32°18' W 090°55'0 0.1
2017-Jan-14 23:33N 32°18' W 090°55'5 5.3
2017-Jan-14 22:33N 32°23' W 090°53'0 0.4
2017-Jan-14 21:33N 32°23' W 090°53'0 0.0
2017-Jan-14 20:33N 32°23' W 090°53'0 0.0
2017-Jan-14 19:33N 32°23' W 090°53'0 0.0
2017-Jan-14 18:33N 32°23' W 090°53'0 0.0
2017-Jan-14 17:33N 32°23' W 090°53'0 0.0
2017-Jan-14 16:33N 32°23' W 090°53'0 0.0
2017-Jan-14 15:33N 32°23' W 090°53'0 0.0
2017-Jan-14 14:33N 32°23' W 090°53'4 1.2
2017-Jan-14 11:27N 32°20' W 090°54'4 4.1
2017-Jan-14 10:33N 32°23' W 090°53'0 0.0
2017-Jan-14 09:33N 32°23' W 090°53'0 0.0
2017-Jan-14 08:33N 32°23' W 090°53'0 0.0
2017-Jan-14 07:33N 32°23' W 090°53'0 0.0
2017-Jan-14 06:33N 32°23' W 090°53'0 0.0
2017-Jan-14 05:33N 32°23' W 090°53'0 0.0
2017-Jan-14 04:33N 32°23' W 090°53'0 0.0
2017-Jan-14 03:34N 32°23' W 090°53'3 0.8
2017-Jan-13 23:33N 32°20' W 090°54'1 0.6
2017-Jan-13 22:33N 32°20' W 090°54'1 0.9
2017-Jan-13 21:34N 32°20' W 090°54'3 2.7
2017-Jan-13 20:34N 32°23' W 090°53'0 0.0
2017-Jan-13 19:33N 32°23' W 090°53'0 0.0
2017-Jan-13 18:34N 32°23' W 090°53'0 0.0
2017-Jan-13 17:33N 32°23' W 090°53'0 0.4
2017-Jan-13 16:34N 32°23' W 090°53'1 0.7
2017-Jan-13 15:33N 32°22' W 090°52'6 5.6
2017-Jan-13 14:33N 32°21' W 090°59'4 3.8
2017-Jan-13 13:34N 32°20' W 090°54'1 0.3
2017-Jan-13 11:33N 32°20' W 090°54'3 3.1
2017-Jan-13 10:33N 32°23' W 090°53'0 0.0
2017-Jan-13 09:33N 32°23' W 090°53'0 0.0
2017-Jan-13 08:33N 32°23' W 090°53'0 0.0
2017-Jan-13 07:33N 32°23' W 090°53'1 0.5
2017-Jan-13 06:33N 32°23' W 090°54'1 0.7
2017-Jan-13 05:33N 32°23' W 090°53'1 0.6
2017-Jan-13 04:33N 32°23' W 090°54'0 0.4
2017-Jan-13 03:33N 32°23' W 090°53'0 0.0
2017-Jan-13 02:33N 32°23' W 090°53'1 1.3
2017-Jan-13 01:33N 32°22' W 090°53'0 0.4
2017-Jan-13 00:33N 32°22' W 090°53'1 1.2
2017-Jan-12 23:33N 32°21' W 090°54'1 1.0
2017-Jan-12 22:33N 32°21' W 090°53'2 1.8
2017-Jan-12 21:33N 32°23' W 090°53'0 0.0
2017-Jan-12 20:33N 32°23' W 090°53'0 0.0
2017-Jan-12 19:34N 32°23' W 090°53'0 0.0
2017-Jan-12 18:33N 32°23' W 090°53'0 0.5
2017-Jan-12 17:33N 32°23' W 090°54'1 0.9
2017-Jan-12 16:34N 32°23' W 090°53'0 0.0
2017-Jan-12 15:33N 32°23' W 090°53'2 1.5
2017-Jan-12 14:33N 32°21' W 090°53'0 0.0
2017-Jan-12 13:33N 32°21' W 090°53'1 1.4
2017-Jan-12 12:33N 32°20' W 090°54'1 1.5
2017-Jan-12 11:33N 32°22' W 090°53'2 1.7
2017-Jan-12 10:33N 32°23' W 090°53'0 0.0
2017-Jan-12 09:33N 32°23' W 090°53'0 0.0
2017-Jan-12 08:33N 32°23' W 090°53'0 0.0
2017-Jan-12 07:33N 32°23' W 090°53'0 0.0
2017-Jan-12 06:33N 32°23' W 090°53'0 0.0
2017-Jan-12 05:33N 32°23' W 090°53'0 0.0
2017-Jan-12 04:33N 32°23' W 090°53'0 0.0
2017-Jan-12 03:33N 32°23' W 090°53'0 0.0
2017-Jan-12 02:33N 32°23' W 090°53'0 0.0
2017-Jan-12 01:33N 32°23' W 090°53'1 1.4
2017-Jan-12 00:33N 32°22' W 090°53'2 2.0
2017-Jan-11 23:20N 32°20' W 090°54'4 4.7
2017-Jan-11 22:33N 32°23' W 090°53'0 0.2
2017-Jan-11 21:33N 32°23' W 090°53'0 0.0
2017-Jan-11 20:33N 32°23' W 090°53'1 0.7
2017-Jan-11 19:33N 32°22' W 090°53'1 0.6
2017-Jan-11 18:33N 32°22' W 090°53'1 1.1
2017-Jan-11 17:33N 32°23' W 090°53'0 0.0
2017-Jan-11 16:33N 32°23' W 090°53'1 0.6
2017-Jan-11 15:33N 32°23' W 090°53'3 2.5
2017-Jan-11 14:33N 32°20' W 090°54'1 1.4
2017-Jan-11 13:33N 32°22' W 090°53'1 1.2
2017-Jan-11 12:33N 32°23' W 090°53'2 2.2
2017-Jan-11 11:33N 32°21' W 090°53'3 3.0
2017-Jan-11 10:33N 32°18' W 090°55'0 0.0
2017-Jan-11 09:34N 32°18' W 090°55'3 2.7
2017-Jan-11 08:34N 32°21' W 090°53'0 0.0
2017-Jan-11 07:34N 32°21' W 090°54'0 0.0
2017-Jan-11 06:34N 32°21' W 090°53'1 0.9
2017-Jan-11 05:34N 32°21' W 090°53'2 1.9
2017-Jan-11 04:34N 32°23' W 090°53'1 0.7
2017-Jan-11 03:34N 32°23' W 090°53'2 1.6
2017-Jan-11 02:34N 32°21' W 090°53'0 0.2
2017-Jan-11 01:33N 32°21' W 090°53'2 2.0
2017-Jan-11 00:34N 32°21' W 090°55'2 1.6
2017-Jan-10 23:33N 32°20' W 090°54'3 2.7
2017-Jan-10 22:33N 32°23' W 090°53'2 2.3
2017-Jan-10 21:33N 32°21' W 090°53'2 2.2
2017-Jan-10 20:33N 32°23' W 090°53'2 2.5
2017-Jan-10 19:33N 32°21' W 090°53'3 2.5
2017-Jan-10 18:33N 32°23' W 090°53'0 0.3
2017-Jan-10 17:33N 32°23' W 090°53'2 1.8
2017-Jan-10 16:33N 32°22' W 090°53'2 2.1
2017-Jan-10 15:33N 32°20' W 090°54'0 0.5
2017-Jan-10 14:33N 32°20' W 090°54'3 3.2
2017-Jan-10 13:33N 32°23' W 090°53'2 2.4
2017-Jan-10 12:33N 32°21' W 090°53'1 0.5
2017-Jan-10 11:23N 32°20' W 090°54'0 0.4
2017-Jan-10 10:34N 32°21' W 090°54'2 2.0
2017-Jan-10 09:34N 32°21' W 090°56'0 0.1
2017-Jan-10 08:34N 32°21' W 090°56'3 2.5
2017-Jan-10 07:33N 32°22' W 090°53'1 1.0
2017-Jan-10 06:34N 32°21' W 090°53'2 2.5
2017-Jan-10 05:34N 32°23' W 090°53'0 0.1
2017-Jan-10 04:33N 32°23' W 090°53'0 0.0
2017-Jan-10 03:34N 32°23' W 090°53'0 0.0
2017-Jan-10 02:33N 32°23' W 090°53'0 0.0
2017-Jan-10 01:34N 32°23' W 090°53'2 1.1
2017-Jan-09 23:33N 32°21' W 090°53'1 1.2
2017-Jan-09 22:33N 32°22' W 090°53'2 1.6
2017-Jan-09 21:33N 32°21' W 090°54'1 1.0
2017-Jan-09 20:33N 32°20' W 090°54'0 0.1
2017-Jan-09 19:33N 32°20' W 090°54'0 0.0
2017-Jan-09 18:33N 32°20' W 090°54'0 0.0
2017-Jan-09 17:33N 32°20' W 090°54'0 0.0
2017-Jan-09 16:33N 32°20' W 090°54'1 0.7
2017-Jan-09 15:33N 32°20' W 090°54'1 0.5
2017-Jan-09 14:33N 32°20' W 090°54'3 2.8
2017-Jan-09 13:33N 32°21' W 090°57'3 2.9
2017-Jan-09 12:33N 32°21' W 090°53'2 1.2
2017-Jan-09 10:28N 32°23' W 090°53'0 0.0
2017-Jan-09 09:33N 32°23' W 090°53'0 0.0
2017-Jan-09 08:33N 32°23' W 090°53'0 0.0
2017-Jan-09 07:33N 32°23' W 090°53'0 0.0
2017-Jan-09 06:33N 32°23' W 090°53'0 0.0
2017-Jan-09 05:33N 32°23' W 090°53'0 0.0
2017-Jan-09 04:33N 32°23' W 090°53'0 0.0
2017-Jan-09 03:33N 32°23' W 090°53'0 0.0
2017-Jan-09 02:33N 32°23' W 090°53'0 0.2
2017-Jan-09 01:33N 32°23' W 090°53'4 1.6
2017-Jan-08 23:12N 32°20' W 090°54'1 1.7
2017-Jan-08 22:33N 32°21' W 090°54'0 0.0
2017-Jan-08 21:33N 32°21' W 090°54'3 3.1
2017-Jan-08 20:33N 32°18' W 090°56'3 3.1
2017-Jan-08 19:33N 32°21' W 090°54'2 2.0
2017-Jan-08 18:33N 32°22' W 090°53'1 1.1
2017-Jan-08 17:33N 32°23' W 090°53'0 0.0
2017-Jan-08 16:33N 32°23' W 090°53'0 0.0
2017-Jan-08 15:33N 32°23' W 090°53'0 0.0
2017-Jan-08 14:33N 32°23' W 090°53'0 0.0
2017-Jan-08 13:33N 32°23' W 090°53'4 3.6
2017-Jan-08 12:33N 32°20' W 090°54'2 0.6
2017-Jan-08 09:33N 32°21' W 090°53'4 4.1
2017-Jan-08 08:33N 32°18' W 090°56'0 0.0
2017-Jan-08 07:33N 32°18' W 090°56'0 0.0
2017-Jan-08 06:33N 32°18' W 090°56'0 0.1
2017-Jan-08 05:33N 32°18' W 090°56'0 0.1
2017-Jan-08 04:33N 32°18' W 090°56'0 0.0
2017-Jan-08 03:33N 32°18' W 090°56'0 0.1
2017-Jan-08 02:33N 32°18' W 090°56'0 0.1
2017-Jan-08 01:33N 32°18' W 090°56'0 0.4
2017-Jan-08 00:33N 32°18' W 090°55'0 0.1
2017-Jan-07 23:33N 32°18' W 090°55'0 0.0
2017-Jan-07 22:33N 32°18' W 090°55'3 2.9
2017-Jan-07 21:33N 32°21' W 090°54'3 2.5
2017-Jan-07 20:33N 32°23' W 090°53'0 0.0
2017-Jan-07 19:33N 32°23' W 090°53'0 0.0
2017-Jan-07 18:33N 32°23' W 090°53'0 0.0
2017-Jan-07 17:33N 32°23' W 090°53'0 0.1
2017-Jan-07 16:33N 32°23' W 090°53'0 0.1
2017-Jan-07 15:33N 32°23' W 090°53'1 0.6
2017-Jan-07 14:33N 32°23' W 090°53'2 1.8
2017-Jan-07 13:33N 32°23' W 090°55'4 1.8
2017-Jan-07 11:18N 32°20' W 090°54'1 1.4
2017-Jan-07 10:33N 32°21' W 090°54'0 0.0
2017-Jan-07 09:33N 32°21' W 090°54'1 0.6
2017-Jan-07 08:33N 32°20' W 090°54'0 0.3
2017-Jan-07 07:33N 32°20' W 090°54'2 2.2
2017-Jan-07 06:33N 32°22' W 090°53'0 0.3
2017-Jan-07 05:34N 32°22' W 090°53'4 4.2
2017-Jan-07 04:33N 32°21' W 090°57'0 0.3
2017-Jan-07 03:33N 32°21' W 090°57'3 3.1
2017-Jan-07 02:33N 32°21' W 090°53'  
Track history (hours):
 
Tides and Currents Weather Stations Pressure Air Temp Water Temp Dewpoint Dewpoint Depression Visibility Wind Speed Wind Dir Waves Ship Positions

M/V Gs980

Owner: ERGON MARINE AND INDUSTRIAL SUPPLY, VICKSBURG, MS. More information available from US FCC via Universal Licensing System and Coast Guard Vessel Documentation Center.

Last reported at 2017-Jan-17 01:33 UTC. Time now 2017-Jan-17 08:57 UTC.
Position N 32°23' W 090°53'.

Length 16 m.

Type: Towing. MMSI: 367099640.

Date/timePositionNaut miles runAvg speedWind from/ knotsBaromVisibWave heightAir tempDewpointWater temp
2017-Jan-17 01:33N 32°23' W 090°53'2 2.4
2017-Jan-17 00:33N 32°21' W 090°53'1 0.8
2017-Jan-16 23:34N 32°20' W 090°54'1 1.1
2017-Jan-16 22:34N 32°21' W 090°53'1 0.7
2017-Jan-16 21:34N 32°21' W 090°54'0 0.0
2017-Jan-16 20:34N 32°21' W 090°54'0 0.1
2017-Jan-16 19:34N 32°21' W 090°54'2 2.4
2017-Jan-16 18:33N 32°23' W 090°53'0 0.2
2017-Jan-16 17:33N 32°23' W 090°53'0 0.4
2017-Jan-16 16:33N 32°23' W 090°53'4 3.6
2017-Jan-16 15:33N 32°20' W 090°54'2 2.0
2017-Jan-16 14:34N 32°18' W 090°55'0 0.2
2017-Jan-16 13:33N 32°18' W 090°55'0 0.1
2017-Jan-16 12:34N 32°18' W 090°55'1 1.1
2017-Jan-16 11:33N 32°19' W 090°54'3 2.8
2017-Jan-16 10:33N 32°21' W 090°53'0 0.1
2017-Jan-16 09:33N 32°22' W 090°53'2 1.6
2017-Jan-16 08:33N 32°23' W 090°53'0 0.0
2017-Jan-16 07:33N 32°23' W 090°53'0 0.0
2017-Jan-16 06:33N 32°23' W 090°53'0 0.0
2017-Jan-16 05:34N 32°23' W 090°53'0 0.0
2017-Jan-16 04:33N 32°23' W 090°53'0 0.0
2017-Jan-16 03:33N 32°23' W 090°53'0 0.0
2017-Jan-16 02:34N 32°23' W 090°53'3 2.9
2017-Jan-16 01:33N 32°21' W 090°55'0 0.3
2017-Jan-16 00:33N 32°21' W 090°56'2 0.8
2017-Jan-15 22:34N 32°20' W 090°54'3 3.0
2017-Jan-15 21:34N 32°23' W 090°53'0 0.0
2017-Jan-15 20:34N 32°23' W 090°53'1 1.3
2017-Jan-15 19:34N 32°22' W 090°53'5 4.6
2017-Jan-15 18:34N 32°18' W 090°55'3 2.9
2017-Jan-15 17:34N 32°21' W 090°53'0 0.0
2017-Jan-15 16:34N 32°21' W 090°53'1 1.1
2017-Jan-15 15:33N 32°20' W 090°54'0 0.0
2017-Jan-15 14:34N 32°20' W 090°54'4 3.7
2017-Jan-15 13:34N 32°23' W 090°53'4 3.6
2017-Jan-15 12:33N 32°20' W 090°54'0 0.1
2017-Jan-15 10:28N 32°20' W 090°54'2 2.6
2017-Jan-15 09:33N 32°18' W 090°56'3 3.4
2017-Jan-15 08:33N 32°21' W 090°53'3 2.6
2017-Jan-15 07:33N 32°23' W 090°53'3 3.3
2017-Jan-15 06:33N 32°20' W 090°54'0 0.0
2017-Jan-15 05:33N 32°20' W 090°54'0 0.0
2017-Jan-15 04:33N 32°20' W 090°54'0 0.5
2017-Jan-15 03:33N 32°20' W 090°54'2 2.1
2017-Jan-15 02:33N 32°22' W 090°53'5 4.7
2017-Jan-15 01:33N 32°18' W 090°55'0 0.1
2017-Jan-15 00:33N 32°18' W 090°55'0 0.1
2017-Jan-14 23:33N 32°18' W 090°55'5 5.3
2017-Jan-14 22:33N 32°23' W 090°53'0 0.4
2017-Jan-14 21:33N 32°23' W 090°53'0 0.0
2017-Jan-14 20:33N 32°23' W 090°53'0 0.0
2017-Jan-14 19:33N 32°23' W 090°53'0 0.0
2017-Jan-14 18:33N 32°23' W 090°53'0 0.0
2017-Jan-14 17:33N 32°23' W 090°53'0 0.0
2017-Jan-14 16:33N 32°23' W 090°53'0 0.0
2017-Jan-14 15:33N 32°23' W 090°53'0 0.0
2017-Jan-14 14:33N 32°23' W 090°53'4 1.2
2017-Jan-14 11:27N 32°20' W 090°54'4 4.1
2017-Jan-14 10:33N 32°23' W 090°53'0 0.0
2017-Jan-14 09:33N 32°23' W 090°53'0 0.0
2017-Jan-14 08:33N 32°23' W 090°53'0 0.0
2017-Jan-14 07:33N 32°23' W 090°53'0 0.0
2017-Jan-14 06:33N 32°23' W 090°53'0 0.0
2017-Jan-14 05:33N 32°23' W 090°53'0 0.0
2017-Jan-14 04:33N 32°23' W 090°53'0 0.0
2017-Jan-14 03:34N 32°23' W 090°53'3 0.8
2017-Jan-13 23:33N 32°20' W 090°54'1 0.6
2017-Jan-13 22:33N 32°20' W 090°54'1 0.9
2017-Jan-13 21:34N 32°20' W 090°54'3 2.7
2017-Jan-13 20:34N 32°23' W 090°53'0 0.0
2017-Jan-13 19:33N 32°23' W 090°53'0 0.0
2017-Jan-13 18:34N 32°23' W 090°53'0 0.0
2017-Jan-13 17:33N 32°23' W 090°53'0 0.4
2017-Jan-13 16:34N 32°23' W 090°53'1 0.7
2017-Jan-13 15:33N 32°22' W 090°52'6 5.6
2017-Jan-13 14:33N 32°21' W 090°59'4 3.8
2017-Jan-13 13:34N 32°20' W 090°54'1 0.3
2017-Jan-13 11:33N 32°20' W 090°54'3 3.1
2017-Jan-13 10:33N 32°23' W 090°53'0 0.0
2017-Jan-13 09:33N 32°23' W 090°53'0 0.0
2017-Jan-13 08:33N 32°23' W 090°53'0 0.0
2017-Jan-13 07:33N 32°23' W 090°53'1 0.5
2017-Jan-13 06:33N 32°23' W 090°54'1 0.7
2017-Jan-13 05:33N 32°23' W 090°53'1 0.6
2017-Jan-13 04:33N 32°23' W 090°54'0 0.4
2017-Jan-13 03:33N 32°23' W 090°53'0 0.0
2017-Jan-13 02:33N 32°23' W 090°53'1 1.3
2017-Jan-13 01:33N 32°22' W 090°53'0 0.4
2017-Jan-13 00:33N 32°22' W 090°53'1 1.2
2017-Jan-12 23:33N 32°21' W 090°54'1 1.0
2017-Jan-12 22:33N 32°21' W 090°53'2 1.8
2017-Jan-12 21:33N 32°23' W 090°53'0 0.0
2017-Jan-12 20:33N 32°23' W 090°53'0 0.0
2017-Jan-12 19:34N 32°23' W 090°53'0 0.0
2017-Jan-12 18:33N 32°23' W 090°53'0 0.5
2017-Jan-12 17:33N 32°23' W 090°54'1 0.9
2017-Jan-12 16:34N 32°23' W 090°53'0 0.0
2017-Jan-12 15:33N 32°23' W 090°53'2 1.5
2017-Jan-12 14:33N 32°21' W 090°53'0 0.0
2017-Jan-12 13:33N 32°21' W 090°53'1 1.4
2017-Jan-12 12:33N 32°20' W 090°54'1 1.5
2017-Jan-12 11:33N 32°22' W 090°53'2 1.7
2017-Jan-12 10:33N 32°23' W 090°53'0 0.0
2017-Jan-12 09:33N 32°23' W 090°53'0 0.0
2017-Jan-12 08:33N 32°23' W 090°53'0 0.0
2017-Jan-12 07:33N 32°23' W 090°53'0 0.0
2017-Jan-12 06:33N 32°23' W 090°53'0 0.0
2017-Jan-12 05:33N 32°23' W 090°53'0 0.0
2017-Jan-12 04:33N 32°23' W 090°53'0 0.0
2017-Jan-12 03:33N 32°23' W 090°53'0 0.0
2017-Jan-12 02:33N 32°23' W 090°53'0 0.0
2017-Jan-12 01:33N 32°23' W 090°53'1 1.4
2017-Jan-12 00:33N 32°22' W 090°53'2 2.0
2017-Jan-11 23:20N 32°20' W 090°54'4 4.7
2017-Jan-11 22:33N 32°23' W 090°53'0 0.2
2017-Jan-11 21:33N 32°23' W 090°53'0 0.0
2017-Jan-11 20:33N 32°23' W 090°53'1 0.7
2017-Jan-11 19:33N 32°22' W 090°53'1 0.6
2017-Jan-11 18:33N 32°22' W 090°53'1 1.1
2017-Jan-11 17:33N 32°23' W 090°53'0 0.0
2017-Jan-11 16:33N 32°23' W 090°53'1 0.6
2017-Jan-11 15:33N 32°23' W 090°53'3 2.5
2017-Jan-11 14:33N 32°20' W 090°54'1 1.4
2017-Jan-11 13:33N 32°22' W 090°53'1 1.2
2017-Jan-11 12:33N 32°23' W 090°53'2 2.2
2017-Jan-11 11:33N 32°21' W 090°53'3 3.0
2017-Jan-11 10:33N 32°18' W 090°55'0 0.0
2017-Jan-11 09:34N 32°18' W 090°55'3 2.7
2017-Jan-11 08:34N 32°21' W 090°53'0 0.0
2017-Jan-11 07:34N 32°21' W 090°54'0 0.0
2017-Jan-11 06:34N 32°21' W 090°53'1 0.9
2017-Jan-11 05:34N 32°21' W 090°53'2 1.9
2017-Jan-11 04:34N 32°23' W 090°53'1 0.7
2017-Jan-11 03:34N 32°23' W 090°53'2 1.6
2017-Jan-11 02:34N 32°21' W 090°53'0 0.2
2017-Jan-11 01:33N 32°21' W 090°53'2 2.0
2017-Jan-11 00:34N 32°21' W 090°55'2 1.6
2017-Jan-10 23:33N 32°20' W 090°54'3 2.7
2017-Jan-10 22:33N 32°23' W 090°53'2 2.3
2017-Jan-10 21:33N 32°21' W 090°53'2 2.2
2017-Jan-10 20:33N 32°23' W 090°53'2 2.5
2017-Jan-10 19:33N 32°21' W 090°53'3 2.5
2017-Jan-10 18:33N 32°23' W 090°53'0 0.3
2017-Jan-10 17:33N 32°23' W 090°53'2 1.8
2017-Jan-10 16:33N 32°22' W 090°53'2 2.1
2017-Jan-10 15:33N 32°20' W 090°54'0 0.5
2017-Jan-10 14:33N 32°20' W 090°54'3 3.2
2017-Jan-10 13:33N 32°23' W 090°53'2 2.4
2017-Jan-10 12:33N 32°21' W 090°53'1 0.5
2017-Jan-10 11:23N 32°20' W 090°54'0 0.4
2017-Jan-10 10:34N 32°21' W 090°54'2 2.0
2017-Jan-10 09:34N 32°21' W 090°56'0 0.1
2017-Jan-10 08:34N 32°21' W 090°56'3 2.5
2017-Jan-10 07:33N 32°22' W 090°53'1 1.0
2017-Jan-10 06:34N 32°21' W 090°53'2 2.5
2017-Jan-10 05:34N 32°23' W 090°53'0 0.1
2017-Jan-10 04:33N 32°23' W 090°53'0 0.0
2017-Jan-10 03:34N 32°23' W 090°53'0 0.0
2017-Jan-10 02:33N 32°23' W 090°53'0 0.0
2017-Jan-10 01:34N 32°23' W 090°53'2 1.1
2017-Jan-09 23:33N 32°21' W 090°53'1 1.2
2017-Jan-09 22:33N 32°22' W 090°53'2 1.6
2017-Jan-09 21:33N 32°21' W 090°54'1 1.0
2017-Jan-09 20:33N 32°20' W 090°54'0 0.1
2017-Jan-09 19:33N 32°20' W 090°54'0 0.0
2017-Jan-09 18:33N 32°20' W 090°54'0 0.0
2017-Jan-09 17:33N 32°20' W 090°54'0 0.0
2017-Jan-09 16:33N 32°20' W 090°54'1 0.7
2017-Jan-09 15:33N 32°20' W 090°54'1 0.5
2017-Jan-09 14:33N 32°20' W 090°54'3 2.8
2017-Jan-09 13:33N 32°21' W 090°57'3 2.9
2017-Jan-09 12:33N 32°21' W 090°53'2 1.2
2017-Jan-09 10:28N 32°23' W 090°53'0 0.0
2017-Jan-09 09:33N 32°23' W 090°53'0 0.0
2017-Jan-09 08:33N 32°23' W 090°53'0 0.0
2017-Jan-09 07:33N 32°23' W 090°53'0 0.0
2017-Jan-09 06:33N 32°23' W 090°53'0 0.0
2017-Jan-09 05:33N 32°23' W 090°53'0 0.0
2017-Jan-09 04:33N 32°23' W 090°53'0 0.0
2017-Jan-09 03:33N 32°23' W 090°53'0 0.0
2017-Jan-09 02:33N 32°23' W 090°53'0 0.2
2017-Jan-09 01:33N 32°23' W 090°53'4 1.6
2017-Jan-08 23:12N 32°20' W 090°54'1 1.7
2017-Jan-08 22:33N 32°21' W 090°54'0 0.0
2017-Jan-08 21:33N 32°21' W 090°54'3 3.1
2017-Jan-08 20:33N 32°18' W 090°56'3 3.1
2017-Jan-08 19:33N 32°21' W 090°54'2 2.0
2017-Jan-08 18:33N 32°22' W 090°53'1 1.1
2017-Jan-08 17:33N 32°23' W 090°53'0 0.0
2017-Jan-08 16:33N 32°23' W 090°53'0 0.0
2017-Jan-08 15:33N 32°23' W 090°53'0 0.0
2017-Jan-08 14:33N 32°23' W 090°53'0 0.0
2017-Jan-08 13:33N 32°23' W 090°53'4 3.6
2017-Jan-08 12:33N 32°20' W 090°54'2 0.6
2017-Jan-08 09:33N 32°21' W 090°53'4 4.1
2017-Jan-08 08:33N 32°18' W 090°56'0 0.0
2017-Jan-08 07:33N 32°18' W 090°56'0 0.0
2017-Jan-08 06:33N 32°18' W 090°56'0 0.1
2017-Jan-08 05:33N 32°18' W 090°56'0 0.1
2017-Jan-08 04:33N 32°18' W 090°56'0 0.0
2017-Jan-08 03:33N 32°18' W 090°56'0 0.1
2017-Jan-08 02:33N 32°18' W 090°56'0 0.1
2017-Jan-08 01:33N 32°18' W 090°56'0 0.4
2017-Jan-08 00:33N 32°18' W 090°55'0 0.1
2017-Jan-07 23:33N 32°18' W 090°55'0 0.0
2017-Jan-07 22:33N 32°18' W 090°55'3 2.9
2017-Jan-07 21:33N 32°21' W 090°54'3 2.5
2017-Jan-07 20:33N 32°23' W 090°53'0 0.0
2017-Jan-07 19:33N 32°23' W 090°53'0 0.0
2017-Jan-07 18:33N 32°23' W 090°53'0 0.0
2017-Jan-07 17:33N 32°23' W 090°53'0 0.1
2017-Jan-07 16:33N 32°23' W 090°53'0 0.1
2017-Jan-07 15:33N 32°23' W 090°53'1 0.6
2017-Jan-07 14:33N 32°23' W 090°53'2 1.8
2017-Jan-07 13:33N 32°23' W 090°55'4 1.8
2017-Jan-07 11:18N 32°20' W 090°54'1 1.4
2017-Jan-07 10:33N 32°21' W 090°54'0 0.0
2017-Jan-07 09:33N 32°21' W 090°54'1 0.6
2017-Jan-07 08:33N 32°20' W 090°54'0 0.3
2017-Jan-07 07:33N 32°20' W 090°54'2 2.2
2017-Jan-07 06:33N 32°22' W 090°53'0 0.3
2017-Jan-07 05:34N 32°22' W 090°53'4 4.2
2017-Jan-07 04:33N 32°21' W 090°57'0 0.3
2017-Jan-07 03:33N 32°21' W 090°57'3 3.1
2017-Jan-07 02:33N 32°21' W 090°53'  

Dump ship's entire track history